sensor_id;sensor_type;location;lat;lon;timestamp;temperature;humidity
47757;SHT35;22147;52.388;13.390;2023-02-01T00:02:07;4.84;80.00
47757;SHT35;22147;52.388;13.390;2023-02-01T00:04:35;4.97;79.60
47757;SHT35;22147;52.388;13.390;2023-02-01T00:07:03;4.95;79.46
47757;SHT35;22147;52.388;13.390;2023-02-01T00:09:32;4.84;80.22
47757;SHT35;22147;52.388;13.390;2023-02-01T00:12:00;4.88;79.53
47757;SHT35;22147;52.388;13.390;2023-02-01T00:14:32;4.86;79.31
47757;SHT35;22147;52.388;13.390;2023-02-01T00:17:08;4.87;79.04
47757;SHT35;22147;52.388;13.390;2023-02-01T00:19:38;4.93;78.83
47757;SHT35;22147;52.388;13.390;2023-02-01T00:22:08;4.80;79.75
47757;SHT35;22147;52.388;13.390;2023-02-01T00:24:37;4.93;78.94
47757;SHT35;22147;52.388;13.390;2023-02-01T00:27:07;4.93;78.91
47757;SHT35;22147;52.388;13.390;2023-02-01T00:29:37;5.05;78.48
47757;SHT35;22147;52.388;13.390;2023-02-01T00:32:07;5.05;78.86
47757;SHT35;22147;52.388;13.390;2023-02-01T00:34:37;4.97;78.99
47757;SHT35;22147;52.388;13.390;2023-02-01T00:37:07;4.95;79.29
47757;SHT35;22147;52.388;13.390;2023-02-01T00:39:37;4.98;79.36
47757;SHT35;22147;52.388;13.390;2023-02-01T00:42:08;5.10;79.07
47757;SHT35;22147;52.388;13.390;2023-02-01T00:44:42;5.07;79.42
47757;SHT35;22147;52.388;13.390;2023-02-01T00:47:10;4.95;80.03
47757;SHT35;22147;52.388;13.390;2023-02-01T00:49:38;4.98;80.21
47757;SHT35;22147;52.388;13.390;2023-02-01T00:52:07;4.87;80.23
47757;SHT35;22147;52.388;13.390;2023-02-01T00:54:35;4.88;80.09
47757;SHT35;22147;52.388;13.390;2023-02-01T00:57:04;4.88;79.88
47757;SHT35;22147;52.388;13.390;2023-02-01T00:59:32;4.83;79.80
47757;SHT35;22147;52.388;13.390;2023-02-01T01:02:01;4.76;80.38
47757;SHT35;22147;52.388;13.390;2023-02-01T01:04:29;4.60;80.99
47757;SHT35;22147;52.388;13.390;2023-02-01T01:06:57;4.66;81.06
47757;SHT35;22147;52.388;13.390;2023-02-01T01:09:26;4.60;81.06
47757;SHT35;22147;52.388;13.390;2023-02-01T01:11:54;4.45;82.05
47757;SHT35;22147;52.388;13.390;2023-02-01T01:14:23;4.39;82.32
47757;SHT35;22147;52.388;13.390;2023-02-01T01:16:51;4.42;82.24
47757;SHT35;22147;52.388;13.390;2023-02-01T01:19:20;4.48;82.03
47757;SHT35;22147;52.388;13.390;2023-02-01T01:21:48;4.36;82.21
47757;SHT35;22147;52.388;13.390;2023-02-01T01:24:16;4.34;82.44
47757;SHT35;22147;52.388;13.390;2023-02-01T01:26:45;4.28;82.41
47757;SHT35;22147;52.388;13.390;2023-02-01T01:29:13;4.44;81.43
47757;SHT35;22147;52.388;13.390;2023-02-01T01:31:42;4.50;81.33
47757;SHT35;22147;52.388;13.390;2023-02-01T01:34:10;4.56;80.73
47757;SHT35;22147;52.388;13.390;2023-02-01T01:36:38;4.70;80.15
47757;SHT35;22147;52.388;13.390;2023-02-01T01:39:07;4.76;79.65
47757;SHT35;22147;52.388;13.390;2023-02-01T01:41:35;4.80;79.23
47757;SHT35;22147;52.388;13.390;2023-02-01T01:47:16;4.83;78.59
47757;SHT35;22147;52.388;13.390;2023-02-01T01:49:46;4.91;78.24
47757;SHT35;22147;52.388;13.390;2023-02-01T01:52:19;4.77;78.66
47757;SHT35;22147;52.388;13.390;2023-02-01T01:54:53;4.77;78.76
47757;SHT35;22147;52.388;13.390;2023-02-01T01:57:40;4.74;78.64
47757;SHT35;22147;52.388;13.390;2023-02-01T02:00:18;4.67;78.73
47757;SHT35;22147;52.388;13.390;2023-02-01T02:05:50;4.63;79.31
47757;SHT35;22147;52.388;13.390;2023-02-01T02:08:25;4.81;78.35
47757;SHT35;22147;52.388;13.390;2023-02-01T02:10:55;4.84;78.41
47757;SHT35;22147;52.388;13.390;2023-02-01T02:13:46;4.79;78.75
47757;SHT35;22147;52.388;13.390;2023-02-01T02:35:10;4.70;79.43
47757;SHT35;22147;52.388;13.390;2023-02-01T02:40:35;4.57;79.97
47757;SHT35;22147;52.388;13.390;2023-02-01T02:43:19;4.53;80.09
47757;SHT35;22147;52.388;13.390;2023-02-01T02:46:23;4.73;79.52
47757;SHT35;22147;52.388;13.390;2023-02-01T02:49:43;4.65;79.96
47757;SHT35;22147;52.388;13.390;2023-02-01T02:53:09;4.77;79.76
47757;SHT35;22147;52.388;13.390;2023-02-01T02:56:06;4.84;79.08
47757;SHT35;22147;52.388;13.390;2023-02-01T02:58:59;4.83;79.07
47757;SHT35;22147;52.388;13.390;2023-02-01T03:01:50;4.62;80.27
47757;SHT35;22147;52.388;13.390;2023-02-01T03:04:39;4.76;79.60
47757;SHT35;22147;52.388;13.390;2023-02-01T03:11:05;4.76;79.55
47757;SHT35;22147;52.388;13.390;2023-02-01T03:13:53;4.86;79.39
47757;SHT35;22147;52.388;13.390;2023-02-01T03:16:52;4.84;79.18
47757;SHT35;22147;52.388;13.390;2023-02-01T03:19:37;4.86;79.07
47757;SHT35;22147;52.388;13.390;2023-02-01T03:22:14;4.83;79.31
47757;SHT35;22147;52.388;13.390;2023-02-01T03:25:04;4.83;79.56
47757;SHT35;22147;52.388;13.390;2023-02-01T03:27:59;4.77;79.51
47757;SHT35;22147;52.388;13.390;2023-02-01T03:30:40;4.73;79.55
47757;SHT35;22147;52.388;13.390;2023-02-01T03:33:21;4.87;79.11
47757;SHT35;22147;52.388;13.390;2023-02-01T03:36:17;4.77;79.60
47757;SHT35;22147;52.388;13.390;2023-02-01T03:39:34;4.84;78.99
47757;SHT35;22147;52.388;13.390;2023-02-01T03:42:35;4.69;80.16
47757;SHT35;22147;52.388;13.390;2023-02-01T03:45:41;4.66;80.00
47757;SHT35;22147;52.388;13.390;2023-02-01T03:48:18;4.62;80.29
47757;SHT35;22147;52.388;13.390;2023-02-01T03:50:58;4.55;80.36
47757;SHT35;22147;52.388;13.390;2023-02-01T03:53:35;4.53;80.71
47757;SHT35;22147;52.388;13.390;2023-02-01T03:56:08;4.49;80.66
47757;SHT35;22147;52.388;13.390;2023-02-01T03:58:41;4.63;80.21
47757;SHT35;22147;52.388;13.390;2023-02-01T04:01:11;4.74;79.77
47757;SHT35;22147;52.388;13.390;2023-02-01T04:03:41;4.56;80.22
47757;SHT35;22147;52.388;13.390;2023-02-01T04:06:11;4.66;80.06
47757;SHT35;22147;52.388;13.390;2023-02-01T04:08:41;4.76;79.72
47757;SHT35;22147;52.388;13.390;2023-02-01T04:11:11;4.70;80.21
47757;SHT35;22147;52.388;13.390;2023-02-01T04:13:41;4.79;80.02
47757;SHT35;22147;52.388;13.390;2023-02-01T04:16:12;4.83;79.81
47757;SHT35;22147;52.388;13.390;2023-02-01T04:18:42;4.80;79.85
47757;SHT35;22147;52.388;13.390;2023-02-01T04:21:13;4.95;79.30
47757;SHT35;22147;52.388;13.390;2023-02-01T04:23:43;4.97;79.30
47757;SHT35;22147;52.388;13.390;2023-02-01T04:26:13;5.01;78.96
47757;SHT35;22147;52.388;13.390;2023-02-01T04:28:43;5.03;79.04
47757;SHT35;22147;52.388;13.390;2023-02-01T04:31:18;5.13;79.12
47757;SHT35;22147;52.388;13.390;2023-02-01T04:33:56;5.00;79.19
47757;SHT35;22147;52.388;13.390;2023-02-01T04:36:27;4.86;79.76
47757;SHT35;22147;52.388;13.390;2023-02-01T04:38:57;4.93;79.54
47757;SHT35;22147;52.388;13.390;2023-02-01T04:41:27;4.98;79.58
47757;SHT35;22147;52.388;13.390;2023-02-01T04:43:58;5.07;79.22
47757;SHT35;22147;52.388;13.390;2023-02-01T04:46:28;5.15;78.63
47757;SHT35;22147;52.388;13.390;2023-02-01T04:48:57;5.18;78.84
47757;SHT35;22147;52.388;13.390;2023-02-01T04:51:25;5.31;77.93
47757;SHT35;22147;52.388;13.390;2023-02-01T04:53:54;5.38;78.16
47757;SHT35;22147;52.388;13.390;2023-02-01T04:56:25;5.35;78.60
47757;SHT35;22147;52.388;13.390;2023-02-01T04:58:53;5.21;78.77
47757;SHT35;22147;52.388;13.390;2023-02-01T05:01:23;5.22;79.21
47757;SHT35;22147;52.388;13.390;2023-02-01T05:03:54;5.15;78.86
47757;SHT35;22147;52.388;13.390;2023-02-01T05:06:24;5.24;78.60
47757;SHT35;22147;52.388;13.390;2023-02-01T05:08:54;5.22;78.63
47757;SHT35;22147;52.388;13.390;2023-02-01T05:11:24;5.32;78.44
47757;SHT35;22147;52.388;13.390;2023-02-01T05:14:13;5.28;78.56
47757;SHT35;22147;52.388;13.390;2023-02-01T05:16:43;5.24;78.61
47757;SHT35;22147;52.388;13.390;2023-02-01T05:19:13;5.11;79.67
47757;SHT35;22147;52.388;13.390;2023-02-01T05:21:43;5.13;79.46
47757;SHT35;22147;52.388;13.390;2023-02-01T05:24:13;5.07;79.44
47757;SHT35;22147;52.388;13.390;2023-02-01T05:26:48;5.24;79.11
47757;SHT35;22147;52.388;13.390;2023-02-01T05:29:19;5.14;79.61
47757;SHT35;22147;52.388;13.390;2023-02-01T05:31:49;5.24;78.91
47757;SHT35;22147;52.388;13.390;2023-02-01T05:34:20;5.24;78.95
47757;SHT35;22147;52.388;13.390;2023-02-01T05:36:47;5.28;78.60
47757;SHT35;22147;52.388;13.390;2023-02-01T05:39:14;5.25;78.28
47757;SHT35;22147;52.388;13.390;2023-02-01T05:41:44;5.25;78.90
47757;SHT35;22147;52.388;13.390;2023-02-01T05:44:14;5.25;78.66
47757;SHT35;22147;52.388;13.390;2023-02-01T05:46:44;5.35;78.75
47757;SHT35;22147;52.388;13.390;2023-02-01T05:49:14;5.36;78.19
47757;SHT35;22147;52.388;13.390;2023-02-01T05:51:43;5.30;78.96
47757;SHT35;22147;52.388;13.390;2023-02-01T05:54:12;5.32;78.61
47757;SHT35;22147;52.388;13.390;2023-02-01T05:56:40;5.31;78.79
47757;SHT35;22147;52.388;13.390;2023-02-01T05:59:10;5.22;79.63
47757;SHT35;22147;52.388;13.390;2023-02-01T06:01:39;5.18;79.49
47757;SHT35;22147;52.388;13.390;2023-02-01T06:04:07;5.31;78.90
47757;SHT35;22147;52.388;13.390;2023-02-01T06:06:36;5.31;78.64
47757;SHT35;22147;52.388;13.390;2023-02-01T06:09:04;5.34;78.61
47757;SHT35;22147;52.388;13.390;2023-02-01T06:11:33;5.27;79.13
47757;SHT35;22147;52.388;13.390;2023-02-01T06:14:01;5.32;78.59
47757;SHT35;22147;52.388;13.390;2023-02-01T06:16:31;5.32;78.99
47757;SHT35;22147;52.388;13.390;2023-02-01T06:19:00;5.17;79.69
47757;SHT35;22147;52.388;13.390;2023-02-01T06:21:28;5.21;79.88
47757;SHT35;22147;52.388;13.390;2023-02-01T06:23:57;5.25;79.22
47757;SHT35;22147;52.388;13.390;2023-02-01T06:26:25;5.24;79.22
47757;SHT35;22147;52.388;13.390;2023-02-01T06:28:54;5.35;78.88
47757;SHT35;22147;52.388;13.390;2023-02-01T06:31:22;5.21;79.73
47757;SHT35;22147;52.388;13.390;2023-02-01T06:33:51;5.24;79.53
47757;SHT35;22147;52.388;13.390;2023-02-01T06:36:19;5.36;78.66
47757;SHT35;22147;52.388;13.390;2023-02-01T06:38:51;5.24;78.87
47757;SHT35;22147;52.388;13.390;2023-02-01T06:41:19;5.18;79.60
47757;SHT35;22147;52.388;13.390;2023-02-01T06:43:48;5.17;79.55
47757;SHT35;22147;52.388;13.390;2023-02-01T06:46:16;5.05;80.13
47757;SHT35;22147;52.388;13.390;2023-02-01T06:48:44;5.17;79.68
47757;SHT35;22147;52.388;13.390;2023-02-01T06:51:22;5.11;79.97
47757;SHT35;22147;52.388;13.390;2023-02-01T06:53:53;5.14;79.50
47757;SHT35;22147;52.388;13.390;2023-02-01T06:56:24;5.14;79.74
47757;SHT35;22147;52.388;13.390;2023-02-01T06:58:54;5.15;78.93
47757;SHT35;22147;52.388;13.390;2023-02-01T07:01:22;5.24;78.93
47757;SHT35;22147;52.388;13.390;2023-02-01T07:03:51;5.22;78.98
47757;SHT35;22147;52.388;13.390;2023-02-01T07:06:19;5.32;78.30
47757;SHT35;22147;52.388;13.390;2023-02-01T07:08:47;5.35;78.08
47757;SHT35;22147;52.388;13.390;2023-02-01T07:11:19;5.28;78.52
47757;SHT35;22147;52.388;13.390;2023-02-01T07:13:48;5.13;79.60
47757;SHT35;22147;52.388;13.390;2023-02-01T07:16:20;5.05;79.55
47757;SHT35;22147;52.388;13.390;2023-02-01T07:18:52;5.18;78.88
47757;SHT35;22147;52.388;13.390;2023-02-01T07:21:22;5.14;79.14
47757;SHT35;22147;52.388;13.390;2023-02-01T07:23:53;5.11;79.91
47757;SHT35;22147;52.388;13.390;2023-02-01T07:26:23;5.14;80.05
47757;SHT35;22147;52.388;13.390;2023-02-01T07:28:53;5.08;80.22
47757;SHT35;22147;52.388;13.390;2023-02-01T07:31:23;5.18;80.17
47757;SHT35;22147;52.388;13.390;2023-02-01T07:33:56;5.28;79.68
47757;SHT35;22147;52.388;13.390;2023-02-01T07:36:27;5.24;79.81
47757;SHT35;22147;52.388;13.390;2023-02-01T07:38:57;5.28;79.93
47757;SHT35;22147;52.388;13.390;2023-02-01T07:41:29;5.28;80.18
47757;SHT35;22147;52.388;13.390;2023-02-01T07:43:59;5.11;81.71
47757;SHT35;22147;52.388;13.390;2023-02-01T07:46:29;5.00;82.20
47757;SHT35;22147;52.388;13.390;2023-02-01T07:48:59;5.03;82.53
47757;SHT35;22147;52.388;13.390;2023-02-01T07:51:29;4.86;84.00
47757;SHT35;22147;52.388;13.390;2023-02-01T07:54:00;4.74;84.62
47757;SHT35;22147;52.388;13.390;2023-02-01T07:56:30;4.65;85.51
47757;SHT35;22147;52.388;13.390;2023-02-01T07:59:00;4.66;85.21
47757;SHT35;22147;52.388;13.390;2023-02-01T08:01:31;4.53;86.40
47757;SHT35;22147;52.388;13.390;2023-02-01T08:04:03;4.35;87.47
47757;SHT35;22147;52.388;13.390;2023-02-01T08:06:34;4.42;87.56
47757;SHT35;22147;52.388;13.390;2023-02-01T08:09:07;4.41;87.80
47757;SHT35;22147;52.388;13.390;2023-02-01T08:11:38;4.42;88.01
47757;SHT35;22147;52.388;13.390;2023-02-01T08:14:08;4.35;87.87
47757;SHT35;22147;52.388;13.390;2023-02-01T08:16:36;4.28;88.35
47757;SHT35;22147;52.388;13.390;2023-02-01T08:19:08;4.26;88.83
47757;SHT35;22147;52.388;13.390;2023-02-01T08:21:36;4.28;88.60
47757;SHT35;22147;52.388;13.390;2023-02-01T08:24:09;4.25;88.54
47757;SHT35;22147;52.388;13.390;2023-02-01T08:26:37;4.22;88.98
47757;SHT35;22147;52.388;13.390;2023-02-01T08:29:09;4.31;88.69
47757;SHT35;22147;52.388;13.390;2023-02-01T08:31:40;4.26;88.81
47757;SHT35;22147;52.388;13.390;2023-02-01T08:34:13;4.26;88.88
47757;SHT35;22147;52.388;13.390;2023-02-01T08:36:41;4.28;89.24
47757;SHT35;22147;52.388;13.390;2023-02-01T08:39:11;4.18;89.70
47757;SHT35;22147;52.388;13.390;2023-02-01T08:41:41;4.21;89.39
47757;SHT35;22147;52.388;13.390;2023-02-01T08:44:31;4.35;89.36
47757;SHT35;22147;52.388;13.390;2023-02-01T08:47:03;4.35;89.50
47757;SHT35;22147;52.388;13.390;2023-02-01T08:49:32;4.32;89.57
47757;SHT35;22147;52.388;13.390;2023-02-01T08:52:02;4.34;89.71
47757;SHT35;22147;52.388;13.390;2023-02-01T08:54:39;4.35;89.85
47757;SHT35;22147;52.388;13.390;2023-02-01T08:57:10;4.48;89.52
47757;SHT35;22147;52.388;13.390;2023-02-01T08:59:40;4.49;88.84
47757;SHT35;22147;52.388;13.390;2023-02-01T09:02:14;4.41;89.18
47757;SHT35;22147;52.388;13.390;2023-02-01T09:04:44;4.42;88.97
47757;SHT35;22147;52.388;13.390;2023-02-01T09:07:14;4.36;89.31
47757;SHT35;22147;52.388;13.390;2023-02-01T09:09:46;4.21;89.76
47757;SHT35;22147;52.388;13.390;2023-02-01T09:12:16;4.36;89.25
47757;SHT35;22147;52.388;13.390;2023-02-01T09:14:46;4.36;89.00
47757;SHT35;22147;52.388;13.390;2023-02-01T09:17:17;4.34;88.81
47757;SHT35;22147;52.388;13.390;2023-02-01T09:19:47;4.41;89.18
47757;SHT35;22147;52.388;13.390;2023-02-01T09:22:17;4.41;88.62
47757;SHT35;22147;52.388;13.390;2023-02-01T09:24:47;4.53;88.96
47757;SHT35;22147;52.388;13.390;2023-02-01T09:27:18;4.57;88.50
47757;SHT35;22147;52.388;13.390;2023-02-01T09:29:48;4.50;88.31
47757;SHT35;22147;52.388;13.390;2023-02-01T09:32:24;4.55;88.38
47757;SHT35;22147;52.388;13.390;2023-02-01T09:34:54;4.55;88.25
47757;SHT35;22147;52.388;13.390;2023-02-01T09:37:24;4.65;87.74
47757;SHT35;22147;52.388;13.390;2023-02-01T09:39:54;4.65;87.63
47757;SHT35;22147;52.388;13.390;2023-02-01T09:46:32;4.63;87.55
47757;SHT35;22147;52.388;13.390;2023-02-01T09:49:19;4.56;87.89
47757;SHT35;22147;52.388;13.390;2023-02-01T09:51:55;4.46;88.32
47757;SHT35;22147;52.388;13.390;2023-02-01T09:54:44;4.66;87.25
47757;SHT35;22147;52.388;13.390;2023-02-01T09:57:49;4.65;87.73
47757;SHT35;22147;52.388;13.390;2023-02-01T10:00:33;4.72;87.59
47757;SHT35;22147;52.388;13.390;2023-02-01T10:03:12;4.69;87.60
47757;SHT35;22147;52.388;13.390;2023-02-01T10:22:01;4.74;87.79
47757;SHT35;22147;52.388;13.390;2023-02-01T10:24:58;4.77;87.34
47757;SHT35;22147;52.388;13.390;2023-02-01T10:27:38;4.69;87.95
47757;SHT35;22147;52.388;13.390;2023-02-01T10:30:20;4.84;87.97
47757;SHT35;22147;52.388;13.390;2023-02-01T10:33:32;4.90;87.49
47757;SHT35;22147;52.388;13.390;2023-02-01T10:38:59;4.94;87.55
47757;SHT35;22147;52.388;13.390;2023-02-01T10:41:40;5.10;87.06
47757;SHT35;22147;52.388;13.390;2023-02-01T10:44:20;5.04;86.86
47757;SHT35;22147;52.388;13.390;2023-02-01T10:46:52;4.94;87.44
47757;SHT35;22147;52.388;13.390;2023-02-01T10:49:54;4.87;87.62
47757;SHT35;22147;52.388;13.390;2023-02-01T10:52:58;4.70;88.56
47757;SHT35;22147;52.388;13.390;2023-02-01T10:55:50;4.86;88.37
47757;SHT35;22147;52.388;13.390;2023-02-01T10:58:31;4.84;88.32
47757;SHT35;22147;52.388;13.390;2023-02-01T11:01:10;4.80;88.31
47757;SHT35;22147;52.388;13.390;2023-02-01T11:03:55;4.91;88.84
47757;SHT35;22147;52.388;13.390;2023-02-01T11:06:39;5.04;87.87
47757;SHT35;22147;52.388;13.390;2023-02-01T11:09:16;5.30;86.32
47757;SHT35;22147;52.388;13.390;2023-02-01T11:14:40;5.80;84.26
47757;SHT35;22147;52.388;13.390;2023-02-01T11:17:35;5.83;84.15
47757;SHT35;22147;52.388;13.390;2023-02-01T11:20:19;5.80;84.42
47757;SHT35;22147;52.388;13.390;2023-02-01T11:22:54;5.74;84.85
47757;SHT35;22147;52.388;13.390;2023-02-01T11:25:25;5.76;84.21
47757;SHT35;22147;52.388;13.390;2023-02-01T11:27:57;5.90;83.89
47757;SHT35;22147;52.388;13.390;2023-02-01T11:30:41;5.89;83.14
47757;SHT35;22147;52.388;13.390;2023-02-01T11:33:20;6.03;83.05
47757;SHT35;22147;52.388;13.390;2023-02-01T11:35:53;6.10;82.61
47757;SHT35;22147;52.388;13.390;2023-02-01T11:38:31;6.24;81.68
47757;SHT35;22147;52.388;13.390;2023-02-01T11:41:27;6.27;81.34
47757;SHT35;22147;52.388;13.390;2023-02-01T11:44:33;6.17;82.17
47757;SHT35;22147;52.388;13.390;2023-02-01T11:47:28;6.20;82.64
47757;SHT35;22147;52.388;13.390;2023-02-01T11:50:15;6.32;81.41
47757;SHT35;22147;52.388;13.390;2023-02-01T12:06:53;6.32;81.04
47757;SHT35;22147;52.388;13.390;2023-02-01T12:13:58;6.41;80.72
47757;SHT35;22147;52.388;13.390;2023-02-01T12:17:33;6.68;81.04
47757;SHT35;22147;52.388;13.390;2023-02-01T12:20:32;6.82;80.42
47757;SHT35;22147;52.388;13.390;2023-02-01T12:23:45;6.78;79.07
47757;SHT35;22147;52.388;13.390;2023-02-01T12:29:55;6.89;79.08
47757;SHT35;22147;52.388;13.390;2023-02-01T12:39:41;6.95;77.42
47757;SHT35;22147;52.388;13.390;2023-02-01T12:42:33;7.00;77.10
47757;SHT35;22147;52.388;13.390;2023-02-01T12:45:43;7.01;76.97
47757;SHT35;22147;52.388;13.390;2023-02-01T12:48:41;7.01;76.10
47757;SHT35;22147;52.388;13.390;2023-02-01T12:51:28;6.99;76.52
47757;SHT35;22147;52.388;13.390;2023-02-01T12:54:21;6.93;76.57
47757;SHT35;22147;52.388;13.390;2023-02-01T12:57:33;6.75;77.10
47757;SHT35;22147;52.388;13.390;2023-02-01T13:00:32;6.86;75.99
47757;SHT35;22147;52.388;13.390;2023-02-01T13:06:53;6.72;77.90
47757;SHT35;22147;52.388;13.390;2023-02-01T13:09:44;6.65;77.94
47757;SHT35;22147;52.388;13.390;2023-02-01T13:12:50;6.68;76.48
47757;SHT35;22147;52.388;13.390;2023-02-01T13:15:33;6.67;77.75
47757;SHT35;22147;52.388;13.390;2023-02-01T13:18:18;6.64;77.46
47757;SHT35;22147;52.388;13.390;2023-02-01T13:23:30;6.67;78.49
47757;SHT35;22147;52.388;13.390;2023-02-01T13:25:59;6.59;78.16
47757;SHT35;22147;52.388;13.390;2023-02-01T13:28:52;6.61;78.71
47757;SHT35;22147;52.388;13.390;2023-02-01T13:37:53;6.56;79.30
47757;SHT35;22147;52.388;13.390;2023-02-01T13:40:39;6.69;78.72
47757;SHT35;22147;52.388;13.390;2023-02-01T13:43:31;6.65;78.12
47757;SHT35;22147;52.388;13.390;2023-02-01T13:46:11;6.56;78.78
47757;SHT35;22147;52.388;13.390;2023-02-01T13:48:55;6.68;78.42
47757;SHT35;22147;52.388;13.390;2023-02-01T13:51:45;6.73;77.52
47757;SHT35;22147;52.388;13.390;2023-02-01T13:54:38;6.71;78.10
47757;SHT35;22147;52.388;13.390;2023-02-01T13:57:43;6.71;78.55
47757;SHT35;22147;52.388;13.390;2023-02-01T14:00:34;6.62;78.15
47757;SHT35;22147;52.388;13.390;2023-02-01T14:08:46;6.58;78.74
47757;SHT35;22147;52.388;13.390;2023-02-01T14:19:31;6.46;79.24
47757;SHT35;22147;52.388;13.390;2023-02-01T14:24:57;6.56;78.37
47757;SHT35;22147;52.388;13.390;2023-02-01T14:27:35;6.42;78.56
47757;SHT35;22147;52.388;13.390;2023-02-01T14:30:15;6.46;79.28
47757;SHT35;22147;52.388;13.390;2023-02-01T14:32:46;6.42;78.61
47757;SHT35;22147;52.388;13.390;2023-02-01T14:35:26;6.46;78.34
47757;SHT35;22147;52.388;13.390;2023-02-01T14:38:02;6.41;77.98
47757;SHT35;22147;52.388;13.390;2023-02-01T14:40:34;6.41;77.28
47757;SHT35;22147;52.388;13.390;2023-02-01T14:43:08;6.41;77.26
47757;SHT35;22147;52.388;13.390;2023-02-01T14:45:58;6.38;77.39
47757;SHT35;22147;52.388;13.390;2023-02-01T14:51:01;6.49;76.85
47757;SHT35;22147;52.388;13.390;2023-02-01T14:53:35;6.56;76.01
47757;SHT35;22147;52.388;13.390;2023-02-01T14:59:11;6.61;76.47
47757;SHT35;22147;52.388;13.390;2023-02-01T15:01:57;6.48;76.55
47757;SHT35;22147;52.388;13.390;2023-02-01T15:04:27;6.38;76.85
47757;SHT35;22147;52.388;13.390;2023-02-01T15:07:11;6.38;78.39
47757;SHT35;22147;52.388;13.390;2023-02-01T15:09:48;6.40;78.31
47757;SHT35;22147;52.388;13.390;2023-02-01T15:12:28;6.11;80.04
47757;SHT35;22147;52.388;13.390;2023-02-01T15:15:24;5.73;82.58
47757;SHT35;22147;52.388;13.390;2023-02-01T15:17:59;5.41;84.40
47757;SHT35;22147;52.388;13.390;2023-02-01T15:20:33;5.32;84.44
47757;SHT35;22147;52.388;13.390;2023-02-01T15:23:16;5.14;85.94
47757;SHT35;22147;52.388;13.390;2023-02-01T15:25:47;5.05;86.00
47757;SHT35;22147;52.388;13.390;2023-02-01T15:28:17;4.95;86.87
47757;SHT35;22147;52.388;13.390;2023-02-01T15:31:04;4.94;87.27
47757;SHT35;22147;52.388;13.390;2023-02-01T15:33:35;4.88;86.73
47757;SHT35;22147;52.388;13.390;2023-02-01T15:38:44;4.79;87.10
47757;SHT35;22147;52.388;13.390;2023-02-01T15:41:17;4.73;87.38
47757;SHT35;22147;52.388;13.390;2023-02-01T15:46:43;4.52;88.17
47757;SHT35;22147;52.388;13.390;2023-02-01T15:49:30;4.42;88.87
47757;SHT35;22147;52.388;13.390;2023-02-01T15:52:04;4.32;89.47
47757;SHT35;22147;52.388;13.390;2023-02-01T15:54:52;4.35;89.98
47757;SHT35;22147;52.388;13.390;2023-02-01T15:57:32;4.29;89.85
47757;SHT35;22147;52.388;13.390;2023-02-01T16:00:24;4.28;90.09
47757;SHT35;22147;52.388;13.390;2023-02-01T16:03:05;4.32;90.01
47757;SHT35;22147;52.388;13.390;2023-02-01T16:05:40;4.21;90.23
47757;SHT35;22147;52.388;13.390;2023-02-01T16:08:24;4.14;90.75
47757;SHT35;22147;52.388;13.390;2023-02-01T16:11:21;4.07;91.05
47757;SHT35;22147;52.388;13.390;2023-02-01T16:13:52;4.18;91.63
47757;SHT35;22147;52.388;13.390;2023-02-01T16:16:23;3.87;90.70
47757;SHT35;22147;52.388;13.390;2023-02-01T16:18:54;3.57;90.75
47757;SHT35;22147;52.388;13.390;2023-02-01T16:21:24;3.56;90.87
47757;SHT35;22147;52.388;13.390;2023-02-01T16:23:54;3.46;90.25
47757;SHT35;22147;52.388;13.390;2023-02-01T16:26:24;3.18;90.75
47757;SHT35;22147;52.388;13.390;2023-02-01T16:28:52;3.09;90.95
47757;SHT35;22147;52.388;13.390;2023-02-01T16:31:30;3.05;90.63
47757;SHT35;22147;52.388;13.390;2023-02-01T16:34:01;3.02;90.43
47757;SHT35;22147;52.388;13.390;2023-02-01T16:36:33;3.02;90.34
47757;SHT35;22147;52.388;13.390;2023-02-01T16:39:03;2.88;90.53
47757;SHT35;22147;52.388;13.390;2023-02-01T16:41:33;2.94;90.39
47757;SHT35;22147;52.388;13.390;2023-02-01T16:44:03;2.90;90.67
47757;SHT35;22147;52.388;13.390;2023-02-01T16:46:41;2.91;91.14
47757;SHT35;22147;52.388;13.390;2023-02-01T16:49:25;2.84;90.82
47757;SHT35;22147;52.388;13.390;2023-02-01T16:51:58;2.80;91.21
47757;SHT35;22147;52.388;13.390;2023-02-01T16:54:27;2.90;91.43
47757;SHT35;22147;52.388;13.390;2023-02-01T16:56:57;2.98;90.96
47757;SHT35;22147;52.388;13.390;2023-02-01T16:59:26;3.09;90.78
47757;SHT35;22147;52.388;13.390;2023-02-01T17:01:56;3.22;90.24
47757;SHT35;22147;52.388;13.390;2023-02-01T17:04:26;3.23;89.69
47757;SHT35;22147;52.388;13.390;2023-02-01T17:06:56;3.20;90.34
47757;SHT35;22147;52.388;13.390;2023-02-01T17:09:27;3.26;90.23
47757;SHT35;22147;52.388;13.390;2023-02-01T17:11:57;3.30;90.04
47757;SHT35;22147;52.388;13.390;2023-02-01T17:14:27;3.39;89.53
47757;SHT35;22147;52.388;13.390;2023-02-01T17:16:57;3.43;89.52
47757;SHT35;22147;52.388;13.390;2023-02-01T17:19:29;3.42;89.86
47757;SHT35;22147;52.388;13.390;2023-02-01T17:21:59;3.44;89.86
47757;SHT35;22147;52.388;13.390;2023-02-01T17:24:31;3.55;89.39
47757;SHT35;22147;52.388;13.390;2023-02-01T17:27:18;3.63;89.19
47757;SHT35;22147;52.388;13.390;2023-02-01T17:29:47;3.59;89.53
47757;SHT35;22147;52.388;13.390;2023-02-01T17:32:23;3.70;89.38
47757;SHT35;22147;52.388;13.390;2023-02-01T17:34:54;3.66;88.99
47757;SHT35;22147;52.388;13.390;2023-02-01T17:37:32;3.69;88.82
47757;SHT35;22147;52.388;13.390;2023-02-01T17:40:03;3.77;88.84
47757;SHT35;22147;52.388;13.390;2023-02-01T17:42:32;3.91;87.99
47757;SHT35;22147;52.388;13.390;2023-02-01T17:45:35;3.81;88.71
47757;SHT35;22147;52.388;13.390;2023-02-01T17:48:07;3.78;88.68
47757;SHT35;22147;52.388;13.390;2023-02-01T17:50:38;3.80;88.69
47757;SHT35;22147;52.388;13.390;2023-02-01T17:53:10;3.86;88.97
47757;SHT35;22147;52.388;13.390;2023-02-01T17:55:44;3.95;88.66
47757;SHT35;22147;52.388;13.390;2023-02-01T17:58:16;4.01;88.14
47757;SHT35;22147;52.388;13.390;2023-02-01T18:00:48;3.94;88.89
47757;SHT35;22147;52.388;13.390;2023-02-01T18:03:28;3.88;88.70
47757;SHT35;22147;52.388;13.390;2023-02-01T18:05:58;3.91;89.05
47757;SHT35;22147;52.388;13.390;2023-02-01T18:08:30;4.07;88.73
47757;SHT35;22147;52.388;13.390;2023-02-01T18:11:02;4.01;88.52
47757;SHT35;22147;52.388;13.390;2023-02-01T18:13:32;3.99;89.01
47757;SHT35;22147;52.388;13.390;2023-02-01T18:16:02;4.01;89.15
47757;SHT35;22147;52.388;13.390;2023-02-01T18:18:33;4.05;88.85
47757;SHT35;22147;52.388;13.390;2023-02-01T18:21:03;4.14;88.72
47757;SHT35;22147;52.388;13.390;2023-02-01T18:23:33;4.08;88.60
47757;SHT35;22147;52.388;13.390;2023-02-01T18:26:02;4.12;89.11
47757;SHT35;22147;52.388;13.390;2023-02-01T18:28:31;4.02;89.46
47757;SHT35;22147;52.388;13.390;2023-02-01T18:30:59;4.09;89.14
47757;SHT35;22147;52.388;13.390;2023-02-01T18:33:32;4.09;89.06